Time;durP1;ratioP1;P1;durP2;ratioP2;P2;SDS_P1;SDS_P2;PMS_P1;PMS_P2;Temp;Humidity;BMP_temperature;BMP_pressure;BME280_temperature;BME280_humidity;BME280_pressure;Samples;Min_cycle;Max_cycle;Signal;HPM_P1;HPM_P2
2021/04/24 00:00:23;;;;;;;24.95;23.85;;;;;;;;;;5029441;28;20652;-45
2021/04/24 00:02:50;;;;;;;26.83;25.42;;;;;;;;;;5028590;28;20417;-46
2021/04/24 00:05:22;;;;;;;24.30;23.50;;;;;;;;;;5014738;28;20034;-47
2021/04/24 00:07:50;;;;;;;27.02;26.02;;;;;;;;;;5027572;28;20519;-47
2021/04/24 00:10:17;;;;;;;22.38;21.85;;;;;;;;;;5027908;28;20043;-47
2021/04/24 00:12:43;;;;;;;25.35;24.65;;;;;;;;;;5029735;28;20069;-49
2021/04/24 00:15:11;;;;;;;24.83;24.02;;;;;;;;;;5027927;28;20051;-50
2021/04/24 00:17:38;;;;;;;22.77;22.10;;;;;;;;;;5029999;28;20042;-49
2021/04/24 00:20:05;;;;;;;23.92;23.13;;;;;;;;;;5025892;28;20045;-47
2021/04/24 00:22:32;;;;;;;25.27;24.48;;;;;;;;;;5026847;28;20033;-46
2021/04/24 00:24:58;;;;;;;23.55;22.60;;;;;;;;;;5020508;28;20040;-47
2021/04/24 00:27:25;;;;;;;23.23;22.73;;;;;;;;;;5028090;28;20155;-46
2021/04/24 00:29:51;;;;;;;21.88;21.25;;;;;;;;;;5025704;28;20049;-48
2021/04/24 00:32:17;;;;;;;23.98;23.40;;;;;;;;;;5021891;28;20049;-48
2021/04/24 00:34:44;;;;;;;21.90;21.33;;;;;;;;;;5017671;28;20112;-47
2021/04/24 00:37:10;;;;;;;23.85;23.23;;;;;;;;;;5017584;28;20065;-46
2021/04/24 00:39:36;;;;;;;25.20;24.50;;;;;;;;;;5023971;28;20045;-47
2021/04/24 00:42:03;;;;;;;23.33;22.73;;;;;;;;;;5027503;28;20068;-45
2021/04/24 00:44:29;;;;;;;23.60;22.90;;;;;;;;;;5027758;28;20044;-49
2021/04/24 00:46:55;;;;;;;23.55;22.95;;;;;;;;;;5028608;28;20049;-46
2021/04/24 00:49:22;;;;;;;21.27;20.75;;;;;;;;;;5028079;28;20045;-49
2021/04/24 00:51:48;;;;;;;24.08;23.35;;;;;;;;;;5027318;28;20041;-49
2021/04/24 00:54:15;;;;;;;23.27;22.65;;;;;;;;;;5028118;28;20044;-46
2021/04/24 00:56:42;;;;;;;24.33;23.63;;;;;;;;;;5021646;28;20706;-47
2021/04/24 00:59:08;;;;;;;23.73;23.02;;;;;;;;;;5027290;28;20099;-46
2021/04/24 01:01:35;;;;;;;22.45;21.90;;;;;;;;;;5026857;28;20504;-45
2021/04/24 01:04:01;;;;;;;24.00;23.20;;;;;;;;;;5024443;28;20029;-48
2021/04/24 01:06:28;;;;;;;26.05;25.10;;;;;;;;;;5015314;28;20072;-47
2021/04/24 01:08:54;;;;;;;25.40;24.45;;;;;;;;;;5020206;28;20117;-46
2021/04/24 01:11:20;;;;;;;26.75;25.50;;;;;;;;;;5022888;28;20069;-45
2021/04/24 01:13:46;;;;;;;24.90;23.83;;;;;;;;;;5024408;28;20521;-46
2021/04/24 01:16:12;;;;;;;23.77;23.08;;;;;;;;;;5023577;28;20050;-46
2021/04/24 01:18:39;;;;;;;24.55;23.80;;;;;;;;;;5028046;28;20049;-49
2021/04/24 01:21:05;;;;;;;24.65;23.85;;;;;;;;;;5027145;28;20052;-47
2021/04/24 01:23:35;;;;;;;25.33;24.40;;;;;;;;;;5027681;28;20033;-45
2021/04/24 01:26:02;;;;;;;23.75;23.15;;;;;;;;;;5027911;28;20046;-47
2021/04/24 01:28:29;;;;;;;24.83;23.77;;;;;;;;;;5026126;28;20033;-46
2021/04/24 01:30:55;;;;;;;22.15;21.65;;;;;;;;;;5028166;28;20045;-46
2021/04/24 01:33:22;;;;;;;25.05;24.13;;;;;;;;;;5028923;28;20042;-45
2021/04/24 01:35:48;;;;;;;26.25;25.35;;;;;;;;;;5027101;28;20051;-47
2021/04/24 01:38:15;;;;;;;24.60;23.88;;;;;;;;;;5013201;28;20042;-44
2021/04/24 01:40:41;;;;;;;25.25;24.38;;;;;;;;;;5028968;28;20398;-45
2021/04/24 01:43:08;;;;;;;24.70;23.73;;;;;;;;;;5019662;28;20068;-46
2021/04/24 01:45:35;;;;;;;26.70;25.63;;;;;;;;;;5026526;28;20045;-45
2021/04/24 01:48:02;;;;;;;25.23;24.33;;;;;;;;;;5029745;28;20037;-46
2021/04/24 01:50:30;;;;;;;26.17;25.33;;;;;;;;;;5032532;28;20034;-44
2021/04/24 01:52:58;;;;;;;26.58;25.67;;;;;;;;;;5029945;28;20040;-45
2021/04/24 01:55:26;;;;;;;25.25;24.42;;;;;;;;;;5030985;28;20084;-46
2021/04/24 01:57:53;;;;;;;24.85;23.98;;;;;;;;;;5026061;28;20034;-45
2021/04/24 02:00:30;;;;;;;24.80;24.20;;;;;;;;;;5027036;28;20117;-45
2021/04/24 02:02:58;;;;;;;26.60;25.80;;;;;;;;;;5024217;28;20065;-44
2021/04/24 02:05:25;;;;;;;25.75;24.70;;;;;;;;;;5027399;28;20037;-45
2021/04/24 02:07:59;;;;;;;26.10;25.13;;;;;;;;;;5031297;28;20037;-46
2021/04/24 02:10:26;;;;;;;25.73;25.00;;;;;;;;;;5027143;28;20141;-46
2021/04/24 02:12:52;;;;;;;27.50;26.65;;;;;;;;;;5030588;28;20509;-46
2021/04/24 02:15:19;;;;;;;27.13;26.33;;;;;;;;;;5022697;28;20559;-46
2021/04/24 02:17:46;;;;;;;27.13;26.15;;;;;;;;;;5031264;28;20551;-44
2021/04/24 02:20:12;;;;;;;25.70;25.13;;;;;;;;;;5029146;28;20041;-48
2021/04/24 02:22:40;;;;;;;27.50;26.60;;;;;;;;;;5030028;28;20029;-46
2021/04/24 02:25:06;;;;;;;25.95;25.27;;;;;;;;;;5023636;28;20085;-45
2021/04/24 02:27:33;;;;;;;27.25;26.40;;;;;;;;;;5024126;28;20045;-46
2021/04/24 02:30:00;;;;;;;26.02;25.23;;;;;;;;;;5032169;28;20037;-45
2021/04/24 02:32:31;;;;;;;25.25;24.55;;;;;;;;;;5029688;28;20033;-46
2021/04/24 02:34:58;;;;;;;26.33;25.42;;;;;;;;;;5017089;28;20048;-45
2021/04/24 02:37:25;;;;;;;26.15;25.38;;;;;;;;;;5023429;28;20033;-45
2021/04/24 02:39:52;;;;;;;28.50;27.67;;;;;;;;;;5019721;28;20044;-45
2021/04/24 02:42:19;;;;;;;25.60;24.63;;;;;;;;;;5031406;28;20124;-46
2021/04/24 02:44:46;;;;;;;26.77;26.00;;;;;;;;;;5030458;28;20052;-46
2021/04/24 02:47:14;;;;;;;26.88;25.98;;;;;;;;;;5030334;28;20469;-47
2021/04/24 02:49:40;;;;;;;25.40;24.73;;;;;;;;;;5030157;28;20063;-46
2021/04/24 02:52:07;;;;;;;23.35;22.70;;;;;;;;;;5027856;28;20677;-45
2021/04/24 02:54:33;;;;;;;27.60;26.73;;;;;;;;;;5030188;28;20502;-45
2021/04/24 02:57:00;;;;;;;28.55;27.30;;;;;;;;;;5028197;28;20057;-46
2021/04/24 02:59:27;;;;;;;27.33;26.52;;;;;;;;;;5029441;28;20046;-46
2021/04/24 03:01:54;;;;;;;26.90;26.05;;;;;;;;;;5031034;28;20394;-44
2021/04/24 03:04:21;;;;;;;27.40;26.70;;;;;;;;;;5027925;28;20041;-44
2021/04/24 03:06:47;;;;;;;29.55;28.38;;;;;;;;;;5031192;28;20041;-48
2021/04/24 03:09:14;;;;;;;26.40;25.58;;;;;;;;;;5028897;28;20425;-45
2021/04/24 03:11:40;;;;;;;27.00;26.30;;;;;;;;;;5029711;28;20042;-45
2021/04/24 03:14:06;;;;;;;28.60;27.80;;;;;;;;;;5030703;28;20433;-48
2021/04/24 03:16:34;;;;;;;29.10;28.30;;;;;;;;;;5029189;28;20037;-46
2021/04/24 03:19:00;;;;;;;27.55;26.60;;;;;;;;;;5029581;28;20043;-45
2021/04/24 03:21:27;;;;;;;29.10;28.10;;;;;;;;;;5026139;28;20122;-45
2021/04/24 03:23:53;;;;;;;28.20;27.30;;;;;;;;;;5027853;28;20033;-44
2021/04/24 03:26:21;;;;;;;27.77;26.88;;;;;;;;;;5030635;28;20102;-45
2021/04/24 03:28:47;;;;;;;30.02;28.73;;;;;;;;;;5027545;28;20046;-45
2021/04/24 03:31:13;;;;;;;28.35;27.33;;;;;;;;;;5029623;28;20044;-46
2021/04/24 03:33:40;;;;;;;28.55;27.65;;;;;;;;;;5028644;28;20587;-46
2021/04/24 03:36:07;;;;;;;28.25;27.17;;;;;;;;;;5029665;28;20064;-45
2021/04/24 03:38:34;;;;;;;30.50;29.38;;;;;;;;;;5030349;28;20087;-48
2021/04/24 03:41:02;;;;;;;31.02;30.00;;;;;;;;;;5028407;28;20469;-47
2021/04/24 03:43:28;;;;;;;28.00;27.15;;;;;;;;;;5029236;28;20046;-47
2021/04/24 03:45:54;;;;;;;28.75;28.05;;;;;;;;;;5022489;28;20408;-45
2021/04/24 03:48:21;;;;;;;29.83;28.73;;;;;;;;;;5023987;28;20052;-45
2021/04/24 03:50:47;;;;;;;27.25;26.45;;;;;;;;;;5029608;28;20072;-45
2021/04/24 03:53:14;;;;;;;28.27;27.35;;;;;;;;;;5029106;28;20041;-44
2021/04/24 03:55:40;;;;;;;29.15;28.15;;;;;;;;;;5029151;28;20057;-45
2021/04/24 03:58:07;;;;;;;28.23;27.30;;;;;;;;;;5021456;28;20026;-44
2021/04/24 04:00:34;;;;;;;28.10;27.20;;;;;;;;;;5024440;28;20449;-45
2021/04/24 04:03:02;;;;;;;28.67;27.80;;;;;;;;;;5027033;28;20397;-45
2021/04/24 04:05:39;;;;;;;27.52;26.83;;;;;;;;;;5025743;28;20540;-45
2021/04/24 04:08:06;;;;;;;28.90;28.20;;;;;;;;;;5015538;28;20100;-45
2021/04/24 04:10:34;;;;;;;28.25;27.42;;;;;;;;;;5026850;28;20084;-45
2021/04/24 04:13:01;;;;;;;28.60;27.80;;;;;;;;;;5026681;28;20022;-46
2021/04/24 04:15:27;;;;;;;28.15;27.33;;;;;;;;;;5021176;28;20046;-45
2021/04/24 04:17:56;;;;;;;29.48;28.67;;;;;;;;;;5025828;28;20042;-44
2021/04/24 04:20:23;;;;;;;28.52;27.40;;;;;;;;;;5018910;28;20477;-45
2021/04/24 04:22:49;;;;;;;27.50;26.80;;;;;;;;;;5028773;28;20033;-44
2021/04/24 04:25:16;;;;;;;28.75;27.70;;;;;;;;;;5028364;28;20390;-45
2021/04/24 04:27:42;;;;;;;30.48;29.33;;;;;;;;;;5029849;28;20136;-45
2021/04/24 04:30:10;;;;;;;29.13;27.98;;;;;;;;;;5029003;28;20549;-45
2021/04/24 04:32:36;;;;;;;30.60;29.60;;;;;;;;;;5028369;28;20037;-46
2021/04/24 04:35:04;;;;;;;31.15;29.85;;;;;;;;;;5017894;28;20080;-45
2021/04/24 04:37:30;;;;;;;30.20;28.88;;;;;;;;;;5026561;28;20053;-47
2021/04/24 04:39:56;;;;;;;28.98;28.02;;;;;;;;;;5027498;28;20041;-45
2021/04/24 04:42:22;;;;;;;32.00;30.38;;;;;;;;;;5021598;28;20033;-45
2021/04/24 04:44:49;;;;;;;32.20;30.80;;;;;;;;;;5016801;28;20053;-45
2021/04/24 04:47:15;;;;;;;29.90;28.90;;;;;;;;;;5029386;28;20045;-44
2021/04/24 04:49:41;;;;;;;31.92;30.73;;;;;;;;;;5025030;28;20128;-44
2021/04/24 04:52:08;;;;;;;31.73;30.33;;;;;;;;;;5028448;28;20029;-44
2021/04/24 04:54:34;;;;;;;30.60;29.50;;;;;;;;;;5026362;28;20044;-47
2021/04/24 04:57:01;;;;;;;32.72;31.48;;;;;;;;;;5027951;28;20044;-45
2021/04/24 04:59:28;;;;;;;29.23;28.23;;;;;;;;;;5026591;28;20089;-45
2021/04/24 05:01:58;;;;;;;30.40;29.42;;;;;;;;;;5022973;28;20037;-45
2021/04/24 05:04:32;;;;;;;31.38;30.20;;;;;;;;;;5013119;28;20454;-45
2021/04/24 05:06:59;;;;;;;33.00;31.30;;;;;;;;;;5029008;28;20045;-45
2021/04/24 05:09:25;;;;;;;31.02;29.88;;;;;;;;;;5027423;28;20068;-44
2021/04/24 05:11:52;;;;;;;29.88;29.00;;;;;;;;;;5028839;28;20044;-47
2021/04/24 05:14:18;;;;;;;28.00;27.02;;;;;;;;;;5027579;28;20072;-45
2021/04/24 05:16:44;;;;;;;30.65;29.63;;;;;;;;;;5019301;28;20100;-46
2021/04/24 05:19:11;;;;;;;28.38;27.35;;;;;;;;;;5024174;28;20057;-48
2021/04/24 05:21:38;;;;;;;25.92;25.23;;;;;;;;;;5027688;28;20080;-46
2021/04/24 05:24:04;;;;;;;28.42;27.45;;;;;;;;;;5016074;28;20395;-47
2021/04/24 05:26:31;;;;;;;27.25;26.65;;;;;;;;;;5028781;28;20084;-47
2021/04/24 05:28:57;;;;;;;29.95;29.08;;;;;;;;;;5031764;28;20034;-44
2021/04/24 05:31:25;;;;;;;26.23;25.45;;;;;;;;;;5020756;28;20104;-40
2021/04/24 05:33:52;;;;;;;26.77;26.08;;;;;;;;;;5025110;28;20041;-42
2021/04/24 05:36:19;;;;;;;24.98;24.38;;;;;;;;;;5031857;28;20041;-42
2021/04/24 05:38:48;;;;;;;28.45;27.50;;;;;;;;;;5026783;28;20133;-41
2021/04/24 05:41:20;;;;;;;25.48;24.70;;;;;;;;;;5026515;28;20029;-41
2021/04/24 05:43:47;;;;;;;24.10;23.35;;;;;;;;;;5018050;28;20482;-40
2021/04/24 05:46:14;;;;;;;26.98;26.02;;;;;;;;;;5026859;28;20056;-42
2021/04/24 05:48:40;;;;;;;22.55;22.08;;;;;;;;;;5033090;28;20132;-42
2021/04/24 05:51:07;;;;;;;23.80;23.05;;;;;;;;;;5029937;28;20037;-41
2021/04/24 05:53:33;;;;;;;23.00;22.50;;;;;;;;;;5011983;28;20052;-42
2021/04/24 05:56:00;;;;;;;25.42;24.38;;;;;;;;;;5017489;28;20038;-40
2021/04/24 05:58:26;;;;;;;25.75;24.77;;;;;;;;;;5026601;28;20052;-41
2021/04/24 06:00:52;;;;;;;25.52;24.58;;;;;;;;;;5036291;28;20054;-42
2021/04/24 06:03:18;;;;;;;25.15;24.20;;;;;;;;;;5028856;28;20120;-41
2021/04/24 06:05:45;;;;;;;26.77;25.67;;;;;;;;;;5022564;28;20037;-40
2021/04/24 06:08:11;;;;;;;24.38;23.60;;;;;;;;;;5032483;28;20646;-43
2021/04/24 06:10:37;;;;;;;25.27;24.45;;;;;;;;;;5026918;28;20517;-41
2021/04/24 06:13:04;;;;;;;25.50;24.35;;;;;;;;;;5015523;28;20382;-41
2021/04/24 06:15:30;;;;;;;24.70;23.90;;;;;;;;;;5029441;28;20057;-41
2021/04/24 06:17:56;;;;;;;24.55;23.85;;;;;;;;;;5024230;28;20069;-41
2021/04/24 06:20:22;;;;;;;23.27;22.58;;;;;;;;;;5027228;28;20046;-41
2021/04/24 06:22:49;;;;;;;21.33;20.63;;;;;;;;;;5030694;28;20029;-40
2021/04/24 06:25:16;;;;;;;22.83;22.13;;;;;;;;;;5030368;28;20051;-42
2021/04/24 06:27:44;;;;;;;18.17;17.67;;;;;;;;;;5021328;28;20450;-40
2021/04/24 06:30:11;;;;;;;15.65;15.35;;;;;;;;;;5024781;28;20044;-42
2021/04/24 06:32:37;;;;;;;8.68;8.32;;;;;;;;;;5014136;28;20033;-41
2021/04/24 06:35:05;;;;;;;16.77;16.42;;;;;;;;;;5031430;28;20049;-42
2021/04/24 06:37:31;;;;;;;17.98;17.48;;;;;;;;;;5031717;28;20044;-42
2021/04/24 06:39:57;;;;;;;13.95;13.75;;;;;;;;;;5031558;28;20045;-43
2021/04/24 06:42:24;;;;;;;16.00;15.70;;;;;;;;;;5029462;28;20057;-42
2021/04/24 06:44:51;;;;;;;9.63;9.38;;;;;;;;;;5037618;28;20618;-41
2021/04/24 06:47:17;;;;;;;6.13;5.82;;;;;;;;;;5029736;28;20096;-40
2021/04/24 06:49:43;;;;;;;8.02;7.88;;;;;;;;;;5034208;28;20049;-40
2021/04/24 06:52:10;;;;;;;4.88;4.78;;;;;;;;;;5018416;28;20662;-41
2021/04/24 06:54:37;;;;;;;4.20;4.00;;;;;;;;;;5024033;28;20048;-41
2021/04/24 06:57:04;;;;;;;3.80;3.60;;;;;;;;;;5013205;28;20578;-44
2021/04/24 06:59:32;;;;;;;3.78;3.67;;;;;;;;;;5031065;28;20095;-41
2021/04/24 07:01:58;;;;;;;4.70;3.13;;;;;;;;;;5026068;28;20072;-40
2021/04/24 07:04:25;;;;;;;2.90;2.80;;;;;;;;;;5024084;28;20529;-41
2021/04/24 07:06:51;;;;;;;4.68;4.13;;;;;;;;;;5024762;28;20033;-43
2021/04/24 07:09:18;;;;;;;2.60;2.60;;;;;;;;;;5015460;28;20132;-41
2021/04/24 07:11:44;;;;;;;3.90;3.75;;;;;;;;;;5019893;28;20085;-41
2021/04/24 07:14:10;;;;;;;3.55;3.45;;;;;;;;;;5020386;28;20029;-41
2021/04/24 07:16:36;;;;;;;3.42;2.90;;;;;;;;;;5018471;28;20658;-40
2021/04/24 07:19:03;;;;;;;3.33;2.83;;;;;;;;;;5027138;28;20059;-41
2021/04/24 07:21:31;;;;;;;2.78;2.63;;;;;;;;;;5017682;28;20038;-40
2021/04/24 07:23:57;;;;;;;2.80;2.70;;;;;;;;;;5029446;28;20202;-42
2021/04/24 07:26:24;;;;;;;2.63;2.42;;;;;;;;;;5028947;28;20167;-43
2021/04/24 07:28:50;;;;;;;2.88;1.48;;;;;;;;;;5015571;28;20038;-41
2021/04/24 07:31:16;;;;;;;2.13;2.03;;;;;;;;;;5022985;28;20561;-41
2021/04/24 07:33:43;;;;;;;4.00;1.55;;;;;;;;;;5022918;28;20041;-40
2021/04/24 07:36:10;;;;;;;1.52;1.50;;;;;;;;;;5024747;28;20184;-41
2021/04/24 07:38:36;;;;;;;1.60;1.50;;;;;;;;;;5020557;28;20120;-41
2021/04/24 07:41:03;;;;;;;1.23;1.23;;;;;;;;;;5030143;28;20045;-42
2021/04/24 07:43:29;;;;;;;1.30;1.20;;;;;;;;;;5028740;28;20037;-40
2021/04/24 07:45:55;;;;;;;3.45;1.50;;;;;;;;;;5026960;28;20049;-41
2021/04/24 07:48:21;;;;;;;1.85;1.25;;;;;;;;;;5029255;28;20041;-43
2021/04/24 07:50:49;;;;;;;2.78;1.50;;;;;;;;;;5022354;28;20065;-41
2021/04/24 07:53:16;;;;;;;1.15;1.05;;;;;;;;;;5011784;28;20050;-41
2021/04/24 07:55:42;;;;;;;1.35;1.30;;;;;;;;;;5022363;28;20038;-42
2021/04/24 07:58:09;;;;;;;2.80;1.50;;;;;;;;;;5016206;28;20050;-43
2021/04/24 08:00:36;;;;;;;1.98;1.88;;;;;;;;;;5018501;28;20379;-42
2021/04/24 08:03:03;;;;;;;1.50;1.40;;;;;;;;;;5025216;28;20053;-42
2021/04/24 08:05:29;;;;;;;1.63;1.52;;;;;;;;;;5028466;28;20045;-42
2021/04/24 08:07:59;;;;;;;1.60;1.60;;;;;;;;;;5027914;28;20044;-42
2021/04/24 08:10:26;;;;;;;2.92;2.80;;;;;;;;;;5029160;28;20124;-41
2021/04/24 08:12:52;;;;;;;2.25;2.15;;;;;;;;;;5029451;28;20045;-42
2021/04/24 08:15:19;;;;;;;1.60;1.48;;;;;;;;;;5026616;28;20095;-43
2021/04/24 08:17:45;;;;;;;3.40;1.67;;;;;;;;;;5028883;28;20920;-42
2021/04/24 08:20:14;;;;;;;2.97;1.70;;;;;;;;;;5021742;28;20037;-42
2021/04/24 08:22:40;;;;;;;1.70;1.60;;;;;;;;;;5028831;28;20680;-43
2021/04/24 08:25:07;;;;;;;1.30;1.10;;;;;;;;;;5014846;28;20056;-44
2021/04/24 08:27:34;;;;;;;1.00;1.00;;;;;;;;;;5023305;28;20517;-44
2021/04/24 08:30:00;;;;;;;1.13;1.10;;;;;;;;;;5013068;28;20072;-43
2021/04/24 08:32:26;;;;;;;2.15;1.00;;;;;;;;;;5029747;28;20049;-42
2021/04/24 08:34:52;;;;;;;1.00;1.00;;;;;;;;;;5028693;28;20046;-45
2021/04/24 08:37:19;;;;;;;1.98;0.80;;;;;;;;;;5014296;28;20045;-43
2021/04/24 08:39:45;;;;;;;1.10;0.98;;;;;;;;;;5023668;28;20065;-42
2021/04/24 08:42:13;;;;;;;1.38;0.80;;;;;;;;;;5013433;28;20429;-42
2021/04/24 08:44:40;;;;;;;0.95;0.90;;;;;;;;;;5028626;28;20379;-43
2021/04/24 08:47:07;;;;;;;1.08;0.90;;;;;;;;;;5027519;28;20068;-41
2021/04/24 08:49:34;;;;;;;1.80;1.10;;;;;;;;;;5013628;28;20034;-42
2021/04/24 08:52:01;;;;;;;0.90;0.90;;;;;;;;;;5021989;28;20049;-44
2021/04/24 08:54:28;;;;;;;1.80;0.90;;;;;;;;;;5014563;28;20501;-43
2021/04/24 08:56:54;;;;;;;3.85;0.85;;;;;;;;;;5029688;28;20605;-43
2021/04/24 08:59:20;;;;;;;1.55;0.90;;;;;;;;;;5032751;28;20030;-42
2021/04/24 09:01:46;;;;;;;2.03;1.05;;;;;;;;;;5017385;28;20038;-45
2021/04/24 09:04:13;;;;;;;2.60;0.75;;;;;;;;;;5027370;28;20026;-42
2021/04/24 09:06:39;;;;;;;1.15;0.85;;;;;;;;;;5019934;28;20042;-44
2021/04/24 09:09:07;;;;;;;1.15;0.77;;;;;;;;;;5022313;28;20050;-45
2021/04/24 09:11:40;;;;;;;1.75;0.77;;;;;;;;;;5022635;28;20163;-43
2021/04/24 09:14:11;;;;;;;0.82;0.80;;;;;;;;;;5046419;28;20048;-44
2021/04/24 09:16:41;;;;;;;2.55;0.77;;;;;;;;;;5026422;28;20134;-44
2021/04/24 09:19:24;;;;;;;1.10;1.10;;;;;;;;;;5039375;28;20482;-43
2021/04/24 09:22:10;;;;;;;0.80;0.70;;;;;;;;;;5017383;28;20045;-44
2021/04/24 09:24:37;;;;;;;1.15;0.93;;;;;;;;;;5027155;28;20502;-42
2021/04/24 09:27:03;;;;;;;1.08;0.70;;;;;;;;;;5020598;28;20029;-43
2021/04/24 09:29:48;;;;;;;0.90;0.90;;;;;;;;;;5017032;28;20454;-43
2021/04/24 09:32:16;;;;;;;1.50;0.75;;;;;;;;;;5026097;28;20440;-47
2021/04/24 09:34:45;;;;;;;0.73;0.73;;;;;;;;;;5015750;28;20069;-43
2021/04/24 09:37:18;;;;;;;0.90;0.90;;;;;;;;;;5031705;28;20466;-42
2021/04/24 09:39:45;;;;;;;0.70;0.70;;;;;;;;;;5031332;28;20438;-43
2021/04/24 09:42:30;;;;;;;0.80;0.80;;;;;;;;;;5032696;28;20033;-44
2021/04/24 09:44:56;;;;;;;0.75;0.75;;;;;;;;;;5023296;28;20045;-43
2021/04/24 09:47:24;;;;;;;5.63;0.90;;;;;;;;;;5023964;28;20060;-44
2021/04/24 09:49:51;;;;;;;0.70;0.70;;;;;;;;;;5029674;28;20037;-43
2021/04/24 09:52:21;;;;;;;0.80;0.80;;;;;;;;;;5029768;28;20105;-42
2021/04/24 09:54:48;;;;;;;0.70;0.70;;;;;;;;;;5030414;28;20056;-44
2021/04/24 09:57:21;;;;;;;1.77;0.80;;;;;;;;;;5020533;28;20042;-42
2021/04/24 09:59:50;;;;;;;2.28;0.80;;;;;;;;;;5023138;28;20029;-43
2021/04/24 10:02:27;;;;;;;1.55;0.70;;;;;;;;;;5031599;28;20041;-43
2021/04/24 10:05:10;;;;;;;0.80;0.80;;;;;;;;;;5031370;28;20507;-44
2021/04/24 10:07:41;;;;;;;1.05;0.70;;;;;;;;;;5029472;28;20045;-43
2021/04/24 10:10:08;;;;;;;0.80;0.80;;;;;;;;;;5031696;28;20037;-42
2021/04/24 10:12:35;;;;;;;1.83;0.70;;;;;;;;;;5028648;28;20044;-43
2021/04/24 10:15:02;;;;;;;0.80;0.80;;;;;;;;;;5030360;28;21847;-44
2021/04/24 10:17:28;;;;;;;0.95;0.95;;;;;;;;;;5029633;28;20468;-45
2021/04/24 10:19:54;;;;;;;2.53;0.73;;;;;;;;;;5029031;28;20065;-42
2021/04/24 10:22:22;;;;;;;0.90;0.90;;;;;;;;;;5032057;28;20038;-44
2021/04/24 10:24:49;;;;;;;1.63;0.70;;;;;;;;;;5026207;28;20038;-45
2021/04/24 10:27:16;;;;;;;0.80;0.80;;;;;;;;;;5028510;28;20045;-44
2021/04/24 10:29:43;;;;;;;0.70;0.70;;;;;;;;;;5034575;28;20049;-45
2021/04/24 10:32:10;;;;;;;0.70;0.70;;;;;;;;;;5029777;28;20625;-43
2021/04/24 10:34:37;;;;;;;0.93;0.80;;;;;;;;;;5025878;28;20041;-43
2021/04/24 10:37:04;;;;;;;1.00;0.70;;;;;;;;;;5028938;28;20033;-47
2021/04/24 10:39:35;;;;;;;0.77;0.75;;;;;;;;;;5020857;28;20069;-43
2021/04/24 10:42:01;;;;;;;0.80;0.80;;;;;;;;;;5027752;28;20434;-45
2021/04/24 10:44:46;;;;;;;0.95;0.70;;;;;;;;;;5029319;28;20041;-46
2021/04/24 10:47:13;;;;;;;1.63;0.75;;;;;;;;;;5026191;28;20096;-43
2021/04/24 10:50:05;;;;;;;0.70;0.70;;;;;;;;;;5030176;28;20041;-44
2021/04/24 10:52:32;;;;;;;0.70;0.70;;;;;;;;;;5025084;28;20061;-44
2021/04/24 10:55:13;;;;;;;3.03;0.70;;;;;;;;;;5025217;28;20045;-44
2021/04/24 10:57:45;;;;;;;1.60;0.70;;;;;;;;;;5029133;28;20047;-42
2021/04/24 11:00:12;;;;;;;4.50;0.70;;;;;;;;;;5027891;28;20390;-45
2021/04/24 11:02:41;;;;;;;1.85;0.70;;;;;;;;;;5016010;28;20292;-43
2021/04/24 11:05:37;;;;;;;1.90;0.70;;;;;;;;;;5024097;28;20030;-44
2021/04/24 11:08:09;;;;;;;1.15;0.70;;;;;;;;;;5029037;28;20115;-44
2021/04/24 11:10:43;;;;;;;6.65;0.70;;;;;;;;;;5032960;28;20045;-43
2021/04/24 11:13:11;;;;;;;1.17;0.60;;;;;;;;;;5030413;28;20049;-44
2021/04/24 11:15:38;;;;;;;0.70;0.70;;;;;;;;;;5031052;28;20043;-46
2021/04/24 11:18:07;;;;;;;0.80;0.80;;;;;;;;;;5021405;28;20124;-43
2021/04/24 11:20:53;;;;;;;0.70;0.70;;;;;;;;;;5020649;28;20038;-43
2021/04/24 11:23:43;;;;;;;1.85;0.70;;;;;;;;;;5029276;28;20481;-44
2021/04/24 11:26:23;;;;;;;0.60;0.60;;;;;;;;;;5030384;28;20025;-45
2021/04/24 11:29:08;;;;;;;3.53;0.70;;;;;;;;;;5029088;28;21017;-47
2021/04/24 11:31:47;;;;;;;1.45;0.93;;;;;;;;;;5011695;28;20096;-45
2021/04/24 11:34:22;;;;;;;1.23;0.73;;;;;;;;;;5032244;28;20077;-45
2021/04/24 11:37:08;;;;;;;0.60;0.60;;;;;;;;;;5023491;28;20041;-48
2021/04/24 11:39:34;;;;;;;0.93;0.70;;;;;;;;;;5022573;28;20378;-49
2021/04/24 11:42:21;;;;;;;0.60;0.60;;;;;;;;;;5023051;28;20030;-49
2021/04/24 11:44:48;;;;;;;0.70;0.70;;;;;;;;;;5023127;28;20037;-50
2021/04/24 11:47:34;;;;;;;0.80;0.70;;;;;;;;;;5030414;28;20049;-51
2021/04/24 11:50:02;;;;;;;0.60;0.60;;;;;;;;;;5022793;28;20103;-50
2021/04/24 11:52:28;;;;;;;0.60;0.60;;;;;;;;;;5021044;28;20132;-50
2021/04/24 11:54:55;;;;;;;0.60;0.60;;;;;;;;;;5030455;28;20077;-51
2021/04/24 11:57:22;;;;;;;0.70;0.70;;;;;;;;;;5027062;28;20045;-50
2021/04/24 11:59:48;;;;;;;1.13;1.13;;;;;;;;;;5020890;28;20091;-50
2021/04/24 12:02:14;;;;;;;0.80;0.80;;;;;;;;;;5027932;28;20060;-49
2021/04/24 12:04:42;;;;;;;0.60;0.60;;;;;;;;;;5029378;28;20053;-49
2021/04/24 12:07:08;;;;;;;1.20;0.70;;;;;;;;;;5026805;28;20125;-48
2021/04/24 12:09:46;;;;;;;1.83;0.68;;;;;;;;;;5025402;28;20065;-50
2021/04/24 12:12:13;;;;;;;0.70;0.60;;;;;;;;;;5026780;28;20071;-49
2021/04/24 12:14:40;;;;;;;0.70;0.70;;;;;;;;;;5019412;28;20982;-50
2021/04/24 12:17:08;;;;;;;0.70;0.70;;;;;;;;;;5020346;28;20049;-48
2021/04/24 12:19:38;;;;;;;0.60;0.60;;;;;;;;;;5028979;28;20065;-51
2021/04/24 12:22:04;;;;;;;0.60;0.60;;;;;;;;;;5025637;28;20068;-49
2021/04/24 12:24:31;;;;;;;2.05;0.63;;;;;;;;;;5027236;28;20123;-49
2021/04/24 12:26:57;;;;;;;4.55;0.68;;;;;;;;;;5026103;28;20372;-49
2021/04/24 12:29:42;;;;;;;0.70;0.70;;;;;;;;;;5027857;28;20041;-50
2021/04/24 12:32:18;;;;;;;0.60;0.60;;;;;;;;;;5028879;28;20045;-49
2021/04/24 12:34:45;;;;;;;0.75;0.65;;;;;;;;;;5029414;28;20391;-50
2021/04/24 12:37:15;;;;;;;1.42;0.70;;;;;;;;;;5029011;28;20049;-49
2021/04/24 12:39:42;;;;;;;1.13;0.77;;;;;;;;;;5029327;28;20087;-51
2021/04/24 12:42:09;;;;;;;0.70;0.70;;;;;;;;;;5026193;28;20036;-51
2021/04/24 12:44:35;;;;;;;1.20;0.70;;;;;;;;;;5015766;28;20033;-50
2021/04/24 12:47:02;;;;;;;1.00;0.88;;;;;;;;;;5027206;28;20088;-49
2021/04/24 12:49:29;;;;;;;0.70;0.70;;;;;;;;;;5027026;28;20537;-50
2021/04/24 12:52:05;;;;;;;1.55;0.70;;;;;;;;;;5028430;28;20037;-48
2021/04/24 12:54:32;;;;;;;0.65;0.60;;;;;;;;;;5027987;28;20079;-49
2021/04/24 12:57:09;;;;;;;1.85;1.42;;;;;;;;;;5027603;28;20037;-50
2021/04/24 12:59:35;;;;;;;0.70;0.70;;;;;;;;;;5020815;28;20035;-48
2021/04/24 13:02:02;;;;;;;0.60;0.60;;;;;;;;;;5023393;28;20068;-50
2021/04/24 13:04:28;;;;;;;1.15;0.70;;;;;;;;;;5016459;28;20092;-47
2021/04/24 13:06:56;;;;;;;0.73;0.63;;;;;;;;;;5020047;28;20046;-49
2021/04/24 13:09:35;;;;;;;0.85;0.70;;;;;;;;;;5023718;28;20045;-47
2021/04/24 13:12:09;;;;;;;0.60;0.60;;;;;;;;;;5022070;28;20095;-48
2021/04/24 13:14:41;;;;;;;0.60;0.60;;;;;;;;;;5026004;28;20576;-46
2021/04/24 13:17:13;;;;;;;0.77;0.65;;;;;;;;;;5027586;28;20068;-48
2021/04/24 13:19:46;;;;;;;0.80;0.70;;;;;;;;;;5020471;28;20042;-47
2021/04/24 13:22:13;;;;;;;3.75;0.70;;;;;;;;;;5026039;28;20041;-47
2021/04/24 13:24:45;;;;;;;1.63;0.70;;;;;;;;;;5027592;28;20128;-44
2021/04/24 13:27:11;;;;;;;1.48;0.70;;;;;;;;;;5023446;28;20034;-46
2021/04/24 13:29:41;;;;;;;1.70;0.70;;;;;;;;;;5025968;28;20516;-48
2021/04/24 13:32:10;;;;;;;0.70;0.70;;;;;;;;;;5016619;28;20025;-45
2021/04/24 13:34:38;;;;;;;0.60;0.60;;;;;;;;;;5022876;28;20100;-46
2021/04/24 13:37:30;;;;;;;0.63;0.63;;;;;;;;;;5014581;28;20045;-47
2021/04/24 13:40:04;;;;;;;0.70;0.70;;;;;;;;;;5018802;28;20061;-48
2021/04/24 13:42:30;;;;;;;1.95;0.80;;;;;;;;;;5026526;28;20033;-45
2021/04/24 13:45:12;;;;;;;0.70;0.70;;;;;;;;;;5031763;28;20163;-46
2021/04/24 13:47:42;;;;;;;0.60;0.60;;;;;;;;;;5031611;28;20065;-50
2021/04/24 13:50:15;;;;;;;0.60;0.60;;;;;;;;;;5030333;28;20075;-50
2021/04/24 13:52:41;;;;;;;0.70;0.70;;;;;;;;;;5014407;28;20049;-46
2021/04/24 13:55:08;;;;;;;1.30;0.80;;;;;;;;;;5032248;28;20056;-50
2021/04/24 13:57:34;;;;;;;0.60;0.60;;;;;;;;;;5025735;28;20489;-45
2021/04/24 14:00:02;;;;;;;0.60;0.60;;;;;;;;;;5020102;28;20121;-46
2021/04/24 14:02:30;;;;;;;1.23;0.70;;;;;;;;;;5025675;28;20045;-46
2021/04/24 14:04:58;;;;;;;0.73;0.73;;;;;;;;;;5015683;28;20521;-45
2021/04/24 14:07:24;;;;;;;1.60;0.65;;;;;;;;;;5038246;28;20393;-47
2021/04/24 14:09:51;;;;;;;0.70;0.60;;;;;;;;;;5035900;28;20038;-46
2021/04/24 14:12:17;;;;;;;0.73;0.63;;;;;;;;;;5029750;28;20041;-46
2021/04/24 14:14:43;;;;;;;1.23;0.70;;;;;;;;;;5029870;28;20107;-47
2021/04/24 14:17:10;;;;;;;0.95;0.70;;;;;;;;;;5025146;28;21929;-48
2021/04/24 14:19:37;;;;;;;2.30;0.70;;;;;;;;;;5028988;28;20469;-46
2021/04/24 14:22:10;;;;;;;1.33;0.70;;;;;;;;;;5020950;28;20410;-46
2021/04/24 14:24:37;;;;;;;0.70;0.70;;;;;;;;;;5030836;28;20057;-50
2021/04/24 14:27:07;;;;;;;0.60;0.60;;;;;;;;;;5022904;28;20052;-46
2021/04/24 14:29:33;;;;;;;0.60;0.60;;;;;;;;;;5031635;28;20516;-47
2021/04/24 14:32:00;;;;;;;0.60;0.60;;;;;;;;;;5031185;28;20049;-49
2021/04/24 14:34:26;;;;;;;0.60;0.60;;;;;;;;;;5030641;28;20042;-50
2021/04/24 14:36:54;;;;;;;0.60;0.60;;;;;;;;;;5030171;28;20060;-50